createdAt,value
2023-04-10T00:00:57.034Z,7.43
2023-04-10T00:03:25.684Z,9.03
2023-04-10T00:05:54.958Z,7.47
2023-04-10T00:08:25.985Z,9.70
2023-04-10T00:10:54.467Z,9.70
2023-04-10T00:13:22.837Z,7.67
2023-04-10T00:15:51.192Z,9.77
2023-04-10T00:18:19.407Z,8.57
2023-04-10T00:20:47.636Z,8.23
2023-04-10T00:23:15.847Z,10.20
2023-04-10T00:25:45.499Z,8.87
2023-04-10T00:28:14.388Z,8.20
2023-04-10T00:30:42.640Z,10.57
2023-04-10T00:33:11.137Z,11.70
2023-04-10T00:35:41.558Z,10.43
2023-04-10T00:38:09.840Z,8.60
2023-04-10T00:40:38.127Z,8.33
2023-04-10T00:43:07.886Z,8.90
2023-04-10T00:45:36.321Z,6.97
2023-04-10T00:48:05.313Z,9.77
2023-04-10T00:50:33.641Z,5.83
2023-04-10T00:53:01.947Z,10.17
2023-04-10T00:55:30.250Z,8.17
2023-04-10T00:57:58.974Z,9.37
2023-04-10T01:00:28.636Z,7.00
2023-04-10T01:02:57.216Z,10.70
2023-04-10T01:05:26.196Z,10.40
2023-04-10T01:08:00.831Z,10.63
2023-04-10T01:10:32.284Z,7.70
2023-04-10T01:13:07.605Z,8.20
2023-04-10T01:15:42.357Z,9.00
2023-04-10T01:18:16.631Z,10.03
2023-04-10T01:20:44.914Z,8.57
2023-04-10T01:23:32.622Z,7.73
2023-04-10T01:26:04.525Z,6.97
2023-04-10T01:28:44.954Z,10.13
2023-04-10T01:31:15.517Z,7.53
2023-04-10T01:33:45.844Z,8.30
2023-04-10T01:36:15.002Z,9.00
2023-04-10T01:38:44.974Z,10.13
2023-04-10T01:41:14.380Z,9.40
2023-04-10T01:43:46.196Z,8.03
2023-04-10T01:46:14.595Z,8.60
2023-04-10T01:48:43.449Z,11.00
2023-04-10T01:51:12.687Z,11.63
2023-04-10T01:53:41.080Z,8.50
2023-04-10T01:56:10.043Z,6.53
2023-04-10T01:58:38.396Z,8.63
2023-04-10T02:01:16.607Z,9.20
2023-04-10T02:03:55.424Z,8.57
2023-04-10T02:06:27.407Z,9.50
2023-04-10T02:08:59.028Z,9.40
2023-04-10T02:11:33.483Z,8.73
2023-04-10T02:14:03.298Z,8.30
2023-04-10T02:16:34.020Z,9.47
2023-04-10T02:19:03.609Z,7.53
2023-04-10T02:21:32.141Z,8.03
2023-04-10T02:24:00.533Z,10.00
2023-04-10T02:26:28.891Z,8.80
2023-04-10T02:28:57.215Z,9.97
2023-04-10T02:31:26.165Z,8.27
2023-04-10T02:33:56.072Z,9.07
2023-04-10T02:36:24.532Z,11.50
2023-04-10T02:38:52.914Z,8.30
2023-04-10T02:41:22.214Z,9.90
2023-04-10T02:43:50.579Z,8.60
2023-04-10T02:46:18.945Z,11.77
2023-04-10T02:48:47.616Z,10.80
2023-04-10T02:51:17.345Z,8.10
2023-04-10T02:53:46.311Z,11.57
2023-04-10T02:56:14.574Z,11.30
2023-04-10T02:58:46.119Z,8.90
2023-04-10T03:01:14.491Z,8.80
2023-04-10T03:03:42.954Z,9.37
2023-04-10T03:06:11.637Z,11.73
2023-04-10T03:08:41.293Z,6.70
2023-04-10T03:11:09.578Z,10.80
2023-04-10T03:13:38.828Z,7.60
2023-04-10T03:16:07.355Z,9.87
2023-04-10T03:18:35.802Z,9.37
2023-04-10T03:21:04.068Z,11.87
2023-04-10T03:23:32.458Z,8.90
2023-04-10T03:26:04.668Z,9.60
2023-04-10T03:28:35.573Z,9.37
2023-04-10T03:31:06.467Z,8.70
2023-04-10T03:33:34.842Z,8.63
2023-04-10T03:36:03.685Z,9.20
2023-04-10T03:38:31.963Z,7.90
2023-04-10T03:41:01.735Z,8.37
2023-04-10T03:43:31.212Z,9.47
2023-04-10T03:45:59.604Z,10.10
2023-04-10T03:48:28.547Z,8.80
2023-04-10T03:50:56.920Z,8.57
2023-04-10T03:53:25.477Z,11.33
2023-04-10T03:55:53.764Z,8.80
2023-04-10T03:58:23.553Z,9.00
2023-04-10T04:00:51.855Z,11.10
2023-04-10T04:03:22.268Z,12.50
2023-04-10T04:05:50.969Z,8.40
2023-04-10T04:08:19.443Z,10.03
2023-04-10T04:10:47.731Z,11.17
2023-04-10T04:13:16.028Z,9.53
2023-04-10T04:15:45.804Z,11.40
2023-04-10T04:18:14.098Z,9.20
2023-04-10T04:20:42.455Z,10.20
2023-04-10T04:23:12.879Z,10.50
2023-04-10T04:25:41.292Z,9.63
2023-04-10T04:28:09.866Z,11.50
2023-04-10T04:30:38.167Z,10.30
2023-04-10T04:33:07.924Z,10.40
2023-04-10T04:35:37.934Z,11.53
2023-04-10T04:38:06.320Z,10.37
2023-04-10T04:40:34.613Z,8.77
2023-04-10T04:43:02.916Z,11.40
2023-04-10T04:45:31.151Z,9.43
2023-04-10T04:47:59.545Z,10.40
2023-04-10T04:50:29.289Z,10.57
2023-04-10T04:52:57.568Z,10.03
2023-04-10T04:55:26.006Z,10.43
2023-04-10T04:57:54.329Z,10.17
2023-04-10T05:00:22.640Z,10.00
2023-04-10T05:02:51.115Z,9.13
2023-04-10T05:05:19.579Z,11.53
2023-04-10T05:07:49.187Z,9.57
2023-04-10T05:10:17.522Z,9.00
2023-04-10T05:12:45.996Z,11.87
2023-04-10T05:15:14.254Z,11.03
2023-04-10T05:17:42.601Z,11.03
2023-04-10T05:20:11.957Z,10.37
2023-04-10T05:22:40.638Z,10.63
2023-04-10T05:25:10.946Z,7.73
2023-04-10T05:27:39.279Z,8.50
2023-04-10T05:30:11.228Z,12.13
2023-04-10T05:32:39.658Z,9.57
2023-04-10T05:35:08.464Z,9.17
2023-04-10T05:37:36.848Z,10.43
2023-04-10T05:40:05.564Z,12.00
2023-04-10T05:42:35.433Z,10.00
2023-04-10T05:45:06.136Z,11.13
2023-04-10T05:47:34.488Z,10.20
2023-04-10T05:50:03.051Z,12.70
2023-04-10T05:52:31.417Z,9.40
2023-04-10T05:55:01.237Z,8.57
2023-04-10T05:57:29.450Z,10.30
2023-04-10T05:59:59.043Z,10.47
2023-04-10T06:02:28.081Z,9.70
2023-04-10T06:04:56.723Z,8.20
2023-04-10T06:07:25.097Z,9.07
2023-04-10T06:09:53.381Z,9.20
2023-04-10T06:12:21.713Z,12.33
2023-04-10T06:14:50.302Z,10.90
2023-04-10T06:17:21.323Z,9.37
2023-04-10T06:19:50.042Z,10.13
2023-04-10T06:22:18.304Z,9.53
2023-04-10T06:24:46.981Z,8.27
2023-04-10T06:27:15.772Z,8.80
2023-04-10T06:29:44.069Z,9.57
2023-04-10T06:32:12.416Z,9.43
2023-04-10T06:34:41.967Z,8.70
2023-04-10T06:37:10.475Z,7.63
2023-04-10T06:39:39.347Z,9.03
2023-04-10T06:42:07.604Z,8.23
2023-04-10T06:44:35.923Z,8.73
2023-04-10T06:47:06.837Z,8.00
2023-04-10T06:49:35.118Z,8.70
2023-04-10T06:52:04.759Z,13.13
2023-04-10T06:54:32.967Z,8.07
2023-04-10T06:57:01.283Z,9.93
2023-04-10T06:59:29.656Z,8.20
2023-04-10T07:01:57.909Z,9.77
2023-04-10T07:04:26.324Z,8.93
2023-04-10T07:06:54.657Z,9.53
2023-04-10T07:09:24.378Z,7.83
2023-04-10T07:11:52.739Z,8.10
2023-04-10T07:14:21.132Z,8.50
2023-04-10T07:16:50.571Z,7.63
2023-04-10T07:19:18.818Z,8.60
2023-04-10T07:21:50.016Z,8.77
2023-04-10T07:24:18.543Z,9.57
2023-04-10T07:26:48.278Z,8.50
2023-04-10T07:29:16.534Z,8.33
2023-04-10T07:31:44.904Z,8.20
2023-04-10T07:34:13.598Z,10.00
2023-04-10T07:36:41.858Z,10.13
2023-04-10T07:39:10.170Z,8.83
2023-04-10T07:41:38.508Z,8.00
2023-04-10T07:44:08.224Z,8.13
2023-04-10T07:46:36.598Z,7.00
2023-04-10T07:49:07.398Z,7.57
2023-04-10T07:51:38.937Z,7.40
2023-04-10T07:54:07.301Z,6.43
2023-04-10T07:56:35.553Z,6.73
2023-04-10T07:59:04.381Z,7.90
2023-04-10T08:01:34.423Z,9.40
2023-04-10T08:04:05.521Z,7.23
2023-04-10T08:06:37.290Z,8.20
2023-04-10T08:09:05.649Z,8.50
2023-04-10T08:11:37.408Z,6.43
2023-04-10T08:14:07.124Z,7.97
2023-04-10T08:16:38.558Z,8.20
2023-04-10T08:19:07.201Z,8.10
2023-04-10T08:21:35.430Z,6.67
2023-04-10T08:24:04.655Z,12.83
2023-04-10T08:26:32.905Z,6.80
2023-04-10T08:29:01.778Z,6.53
2023-04-10T08:31:30.874Z,7.87
2023-04-10T08:34:00.766Z,7.60
2023-04-10T08:36:29.284Z,10.30
2023-04-10T08:38:57.600Z,7.20
2023-04-10T08:41:26.499Z,6.50
2023-04-10T08:43:55.306Z,6.63
2023-04-10T08:46:26.082Z,7.70
2023-04-10T08:48:55.672Z,6.53
2023-04-10T08:51:28.229Z,8.60
2023-04-10T08:54:00.187Z,7.90
2023-04-10T08:56:28.786Z,8.83
2023-04-10T08:58:57.101Z,7.97
2023-04-10T09:01:26.717Z,7.00
2023-04-10T09:03:55.385Z,7.73
2023-04-10T09:06:25.837Z,6.70
2023-04-10T09:08:54.088Z,7.60
2023-04-10T09:11:22.350Z,6.30
2023-04-10T09:13:50.983Z,6.90
2023-04-10T09:16:19.259Z,6.60
2023-04-10T09:18:48.747Z,7.40
2023-04-10T09:21:18.131Z,7.00
2023-04-10T09:23:48.305Z,5.83
2023-04-10T09:26:29.844Z,7.07
2023-04-10T09:29:01.926Z,8.00
2023-04-10T09:31:31.415Z,6.13
2023-04-10T09:34:16.161Z,6.47
2023-04-10T09:36:45.245Z,8.60
2023-04-10T09:39:15.096Z,7.60
2023-04-10T09:41:50.266Z,6.07
2023-04-10T09:44:20.041Z,7.40
2023-04-10T09:46:49.606Z,6.20
2023-04-10T09:49:19.248Z,6.40
2023-04-10T09:51:49.541Z,6.27
2023-04-10T09:54:19.235Z,7.10
2023-04-10T09:56:47.604Z,7.13
2023-04-10T09:59:16.226Z,7.40
2023-04-10T10:01:45.070Z,7.27
2023-04-10T10:04:15.678Z,5.10
2023-04-10T10:06:44.527Z,5.33
2023-04-10T10:09:12.981Z,6.13
2023-04-10T10:11:42.618Z,5.90
2023-04-10T10:14:14.743Z,5.70
2023-04-10T10:16:45.488Z,7.03
2023-04-10T10:19:15.020Z,6.67
2023-04-10T10:21:45.826Z,5.03
2023-04-10T10:24:14.866Z,5.80
2023-04-10T10:26:45.032Z,8.57
2023-04-10T10:29:18.560Z,6.13
2023-04-10T10:31:47.852Z,5.03
2023-04-10T10:34:17.014Z,4.80
2023-04-10T10:36:45.347Z,4.70
2023-04-10T10:39:21.339Z,5.97
2023-04-10T10:41:54.287Z,6.10
2023-04-10T10:44:28.519Z,5.07
2023-04-10T10:47:03.083Z,5.80
2023-04-10T10:49:46.205Z,6.03
2023-04-10T10:52:14.476Z,5.97
2023-04-10T10:54:53.573Z,5.30
2023-04-10T10:57:42.164Z,6.80
2023-04-10T11:00:12.639Z,6.90
2023-04-10T11:02:41.020Z,6.60
2023-04-10T11:05:09.861Z,6.50
2023-04-10T11:07:59.246Z,6.00
2023-04-10T11:10:42.401Z,5.97
2023-04-10T11:13:17.329Z,8.00
2023-04-10T11:15:48.866Z,5.27
2023-04-10T11:18:17.280Z,6.20
2023-04-10T11:21:00.405Z,6.30
2023-04-10T11:23:28.648Z,5.13
2023-04-10T11:25:56.895Z,5.30
2023-04-10T11:28:38.367Z,5.83
2023-04-10T11:31:18.638Z,4.87
2023-04-10T11:33:47.505Z,4.83
2023-04-10T11:36:17.537Z,7.90
2023-04-10T11:38:58.953Z,5.53
2023-04-10T11:41:31.335Z,4.60
2023-04-10T11:43:59.996Z,4.43
2023-04-10T11:46:29.980Z,4.90
2023-04-10T11:48:59.194Z,4.73
2023-04-10T11:51:28.280Z,5.13
2023-04-10T11:54:06.515Z,5.70
2023-04-10T11:56:34.752Z,5.30
2023-04-10T11:59:07.337Z,4.37
2023-04-10T12:01:37.216Z,5.10
2023-04-10T12:04:07.956Z,6.90
2023-04-10T12:06:37.090Z,5.50
2023-04-10T12:09:14.429Z,5.43
2023-04-10T12:11:50.175Z,6.00
2023-04-10T12:14:18.518Z,5.63
2023-04-10T12:16:48.130Z,4.43
2023-04-10T12:19:17.967Z,5.50
2023-04-10T12:21:46.845Z,6.17
2023-04-10T12:24:15.899Z,4.90
2023-04-10T12:26:50.024Z,5.60
2023-04-10T12:29:18.309Z,5.00
2023-04-10T12:31:47.893Z,4.30
2023-04-10T12:34:19.958Z,4.97
2023-04-10T12:36:53.736Z,4.63
2023-04-10T12:39:25.487Z,5.40
2023-04-10T12:41:57.784Z,4.77
2023-04-10T12:44:27.077Z,4.80
2023-04-10T12:47:01.940Z,4.70
2023-04-10T12:49:30.300Z,6.40
2023-04-10T12:51:58.477Z,4.47
2023-04-10T12:54:30.555Z,5.13
2023-04-10T12:56:58.854Z,5.00
2023-04-10T12:59:28.067Z,6.07
2023-04-10T13:01:58.024Z,5.00
2023-04-10T13:04:26.588Z,4.93
2023-04-10T13:06:54.930Z,4.97
2023-04-10T13:09:23.181Z,4.70
2023-04-10T13:11:53.296Z,4.50
2023-04-10T13:14:21.563Z,5.43
2023-04-10T13:16:49.915Z,4.33
2023-04-10T13:19:20.535Z,5.23
2023-04-10T13:21:50.709Z,5.23
2023-04-10T13:24:18.968Z,3.33
2023-04-10T13:26:47.257Z,4.60
2023-04-10T13:29:15.468Z,4.23
2023-04-10T13:31:43.786Z,5.03
2023-04-10T13:34:12.013Z,5.30
2023-04-10T13:36:41.687Z,5.10
2023-04-10T13:39:10.035Z,5.43
2023-04-10T13:41:38.243Z,4.73
2023-04-10T13:44:06.568Z,4.27
2023-04-10T13:46:34.876Z,4.00
2023-04-10T13:49:03.172Z,3.70
2023-04-10T13:51:31.661Z,5.77
2023-04-10T13:54:02.899Z,3.73
2023-04-10T13:56:31.209Z,6.43
2023-04-10T13:58:59.514Z,6.17
2023-04-10T14:01:27.711Z,3.87
2023-04-10T14:03:56.263Z,5.30
2023-04-10T14:06:24.677Z,3.50
2023-04-10T14:08:53.118Z,5.27
2023-04-10T14:11:23.599Z,4.30
2023-04-10T14:13:51.832Z,3.43
2023-04-10T14:16:20.157Z,4.60
2023-04-10T14:18:48.770Z,3.90
2023-04-10T14:21:18.701Z,4.33
2023-04-10T14:23:49.001Z,5.20
2023-04-10T14:26:17.306Z,3.73
2023-04-10T14:28:46.976Z,3.80
2023-04-10T14:31:15.498Z,3.50
2023-04-10T14:33:43.769Z,3.80
2023-04-10T14:36:12.012Z,3.13
2023-04-10T14:38:40.337Z,4.10
2023-04-10T14:41:09.048Z,4.17
2023-04-10T14:43:37.368Z,4.20
2023-04-10T14:46:07.276Z,4.10
2023-04-10T14:48:35.797Z,4.70
2023-04-10T14:51:05.839Z,4.90
2023-04-10T14:53:34.143Z,6.87
2023-04-10T14:56:02.448Z,4.00
2023-04-10T14:58:30.847Z,4.60
2023-04-10T15:00:59.129Z,11.17
2023-04-10T15:03:28.859Z,4.67
2023-04-10T15:06:00.630Z,4.87
2023-04-10T15:08:28.915Z,5.20
2023-04-10T15:10:57.247Z,4.50
2023-04-10T15:13:25.669Z,4.03
2023-04-10T15:15:54.186Z,4.47
2023-04-10T15:18:22.462Z,4.00
2023-04-10T15:20:52.519Z,3.50
2023-04-10T15:23:20.788Z,4.00
2023-04-10T15:25:48.969Z,4.30
2023-04-10T15:28:17.201Z,3.97
2023-04-10T15:30:45.714Z,5.03
2023-04-10T15:33:13.945Z,4.53
2023-04-10T15:35:42.345Z,5.07
2023-04-10T15:38:14.215Z,4.43
2023-04-10T15:40:42.637Z,3.47
2023-04-10T15:43:11.103Z,3.83
2023-04-10T15:45:39.337Z,4.40
2023-04-10T15:48:07.760Z,3.93
2023-04-10T15:50:36.046Z,4.10
2023-04-10T15:53:04.397Z,4.13
2023-04-10T15:55:34.129Z,4.73
2023-04-10T15:58:02.790Z,5.73
2023-04-10T16:00:31.009Z,3.80
2023-04-10T16:02:59.475Z,4.33
2023-04-10T16:05:27.873Z,4.70
2023-04-10T16:07:56.547Z,3.83
2023-04-10T16:10:24.958Z,3.73
2023-04-10T16:12:54.690Z,3.63
2023-04-10T16:15:23.441Z,4.37
2023-04-10T16:17:51.707Z,3.47
2023-04-10T16:20:20.083Z,5.23
2023-04-10T16:22:48.358Z,4.93
2023-04-10T16:25:16.938Z,4.70
2023-04-10T16:27:45.798Z,7.00
2023-04-10T16:30:15.719Z,5.83
2023-04-10T16:32:43.943Z,4.73
2023-04-10T16:35:12.381Z,4.87
2023-04-10T16:37:40.656Z,4.90
2023-04-10T16:40:09.568Z,4.93
2023-04-10T16:42:37.838Z,5.13
2023-04-10T16:45:08.379Z,4.90
2023-04-10T16:47:38.064Z,5.30
2023-04-10T16:50:07.223Z,5.23
2023-04-10T16:52:37.184Z,4.60
2023-04-10T16:55:05.837Z,6.73
2023-04-10T16:57:34.728Z,7.50
2023-04-10T17:00:03.955Z,5.07
2023-04-10T17:02:33.599Z,7.30
2023-04-10T17:05:03.256Z,5.47
2023-04-10T17:07:31.539Z,4.27
2023-04-10T17:10:00.075Z,4.93
2023-04-10T17:12:28.502Z,4.83
2023-04-10T17:14:56.710Z,7.10
2023-04-10T17:17:25.036Z,6.87
2023-04-10T17:19:54.505Z,8.03
2023-04-10T17:22:24.209Z,4.47
2023-04-10T17:24:52.506Z,5.17
2023-04-10T17:27:20.883Z,4.63
2023-04-10T17:29:49.226Z,4.70
2023-04-10T17:32:17.495Z,6.63
2023-04-10T17:34:45.782Z,4.23
2023-04-10T17:37:14.071Z,5.27
2023-04-10T17:39:43.711Z,5.77
2023-04-10T17:42:12.039Z,3.20
2023-04-10T17:44:40.365Z,3.70
2023-04-10T17:47:11.491Z,4.47
2023-04-10T17:49:40.466Z,5.00
2023-04-10T17:52:08.687Z,4.00
2023-04-10T17:54:36.908Z,5.60
2023-04-10T17:57:06.617Z,3.40
2023-04-10T17:59:35.131Z,3.80
2023-04-10T18:02:03.455Z,2.63
2023-04-10T18:04:31.708Z,4.23
2023-04-10T18:06:59.993Z,5.20
2023-04-10T18:09:28.305Z,4.10
2023-04-10T18:11:57.439Z,2.90
2023-04-10T18:14:27.074Z,4.43
2023-04-10T18:16:55.407Z,4.23
2023-04-10T18:19:23.719Z,4.20
2023-04-10T18:21:52.222Z,5.80
2023-04-10T18:24:20.462Z,4.40
2023-04-10T18:26:49.232Z,5.60
2023-04-10T18:29:17.502Z,8.13
2023-04-10T18:31:47.141Z,8.17
2023-04-10T18:34:15.438Z,6.03
2023-04-10T18:36:43.676Z,3.50
2023-04-10T18:39:12.961Z,4.90
2023-04-10T18:41:41.179Z,4.10
2023-04-10T18:44:09.646Z,3.83
2023-04-10T18:46:38.236Z,4.70
2023-04-10T18:49:07.905Z,4.90
2023-04-10T18:51:36.673Z,3.70
2023-04-10T18:54:06.454Z,5.60
2023-04-10T18:56:35.942Z,4.40
2023-04-10T18:59:04.262Z,5.73
2023-04-10T19:01:32.905Z,4.67
2023-04-10T19:04:01.725Z,5.40
2023-04-10T19:06:32.378Z,4.03
2023-04-10T19:09:00.610Z,6.03
2023-04-10T19:11:28.902Z,5.90
2023-04-10T19:13:57.381Z,4.90
2023-04-10T19:16:25.868Z,5.50
2023-04-10T19:18:55.125Z,4.03
2023-04-10T19:21:23.699Z,7.43
2023-04-10T19:23:53.285Z,5.33
2023-04-10T19:26:21.607Z,5.27
2023-04-10T19:28:49.864Z,5.40
2023-04-10T19:31:18.302Z,5.33
2023-04-10T19:33:46.616Z,5.10
2023-04-10T19:36:16.599Z,5.30
2023-04-10T19:38:48.941Z,4.97
2023-04-10T19:41:18.601Z,8.00
2023-04-10T19:43:46.952Z,5.30
2023-04-10T19:46:20.600Z,4.20
2023-04-10T19:48:49.236Z,4.30
2023-04-10T19:51:17.666Z,3.30
2023-04-10T19:53:45.887Z,5.00
2023-04-10T19:56:14.269Z,5.30
2023-04-10T19:58:45.570Z,3.20
2023-04-10T20:01:15.123Z,4.30
2023-04-10T20:03:43.588Z,3.70
2023-04-10T20:06:12.059Z,4.53
2023-04-10T20:08:40.328Z,4.50
2023-04-10T20:11:09.564Z,3.80
2023-04-10T20:13:39.135Z,3.40
2023-04-10T20:16:11.458Z,3.50
2023-04-10T20:18:41.145Z,3.17
2023-04-10T20:21:09.456Z,4.23
2023-04-10T20:23:39.040Z,3.97
2023-04-10T20:26:08.199Z,6.50
2023-04-10T20:28:36.400Z,3.70
2023-04-10T20:31:04.711Z,5.90
2023-04-10T20:33:34.301Z,3.97
2023-04-10T20:36:02.600Z,4.23
2023-04-10T20:38:31.530Z,3.60
2023-04-10T20:40:59.757Z,3.70
2023-04-10T20:43:28.045Z,8.73
2023-04-10T20:45:56.302Z,2.87
2023-04-10T20:48:24.544Z,3.83
2023-04-10T20:50:56.200Z,5.50
2023-04-10T20:53:24.497Z,3.87
2023-04-10T20:55:54.084Z,3.80
2023-04-10T20:58:22.379Z,4.40
2023-04-10T21:00:53.168Z,5.83
2023-04-10T21:03:21.657Z,5.97
2023-04-10T21:05:51.438Z,5.57
2023-04-10T21:08:22.998Z,5.93
2023-04-10T21:10:51.389Z,2.93
2023-04-10T21:13:19.648Z,3.50
2023-04-10T21:15:49.234Z,9.17
2023-04-10T21:18:17.484Z,3.07
2023-04-10T21:20:46.336Z,5.70
2023-04-10T21:23:14.626Z,4.60
2023-04-10T21:25:50.066Z,3.90
2023-04-10T21:28:18.348Z,3.40
2023-04-10T21:30:46.587Z,4.63
2023-04-10T21:33:14.842Z,4.90
2023-04-10T21:35:44.732Z,2.60
2023-04-10T21:38:13.132Z,3.30
2023-04-10T21:40:41.423Z,3.07
2023-04-10T21:43:11.094Z,2.00
2023-04-10T21:45:41.572Z,2.20
2023-04-10T21:48:09.841Z,2.27
2023-04-10T21:50:38.054Z,4.43
2023-04-10T21:53:06.340Z,2.10
2023-04-10T21:55:34.614Z,5.30
2023-04-10T21:58:02.867Z,7.10
2023-04-10T22:00:32.587Z,4.17
2023-04-10T22:03:01.105Z,2.50
2023-04-10T22:05:29.441Z,2.23
2023-04-10T22:07:57.668Z,2.80
2023-04-10T22:10:25.884Z,5.13
2023-04-10T22:12:54.074Z,4.80
2023-04-10T22:15:22.350Z,6.33
2023-04-10T22:17:51.969Z,4.03
2023-04-10T22:20:20.235Z,4.63
2023-04-10T22:22:48.468Z,2.40
2023-04-10T22:25:16.662Z,2.73
2023-04-10T22:27:44.933Z,4.83
2023-04-10T22:30:13.700Z,3.60
2023-04-10T22:32:42.235Z,3.37
2023-04-10T22:35:11.917Z,4.53
2023-04-10T22:37:40.319Z,3.73
2023-04-10T22:40:09.236Z,3.93
2023-04-10T22:42:37.475Z,3.17
2023-04-10T22:45:06.091Z,5.33
2023-04-10T22:47:34.338Z,4.73
2023-04-10T22:50:02.551Z,3.97
2023-04-10T22:52:32.121Z,3.80
2023-04-10T22:55:00.889Z,4.23
2023-04-10T22:57:29.146Z,5.67
2023-04-10T22:59:58.860Z,4.53
2023-04-10T23:02:29.048Z,5.60
2023-04-10T23:04:57.717Z,6.13
2023-04-10T23:07:25.965Z,4.27
2023-04-10T23:09:55.806Z,5.77
2023-04-10T23:12:24.033Z,8.90
2023-04-10T23:14:52.273Z,4.93
2023-04-10T23:17:21.144Z,5.40
2023-04-10T23:19:49.360Z,6.90
2023-04-10T23:22:17.835Z,6.33
2023-04-10T23:24:46.614Z,4.13
2023-04-10T23:27:16.216Z,3.60
2023-04-10T23:29:44.419Z,5.13
2023-04-10T23:32:15.376Z,5.90
2023-04-10T23:34:43.587Z,8.97
2023-04-10T23:37:11.820Z,7.13
2023-04-10T23:39:40.092Z,11.40
2023-04-10T23:42:08.274Z,5.23
2023-04-10T23:44:37.808Z,9.27
2023-04-10T23:47:06.246Z,14.00
2023-04-10T23:49:34.994Z,17.63
2023-04-10T23:52:03.253Z,7.60
2023-04-10T23:54:31.658Z,6.53
2023-04-10T23:56:59.943Z,11.03
2023-04-10T23:59:28.278Z,11.40
